createdAt,value
2022-10-11T00:02:02.868Z,2.33
2022-10-11T00:04:29.548Z,1.92
2022-10-11T00:06:56.207Z,2.40
2022-10-11T00:09:22.868Z,2.05
2022-10-11T00:11:49.502Z,2.58
2022-10-11T00:14:16.184Z,2.38
2022-10-11T00:16:44.458Z,2.13
2022-10-11T00:19:11.605Z,2.38
2022-10-11T00:24:05.797Z,2.40
2022-10-11T00:26:32.748Z,2.08
2022-10-11T00:28:59.408Z,2.30
2022-10-11T00:31:26.136Z,2.38
2022-10-11T00:33:53.937Z,2.92
2022-10-11T00:36:20.803Z,2.30
2022-10-11T00:38:47.561Z,2.10
2022-10-11T00:41:15.628Z,2.35
2022-10-11T00:43:43.064Z,2.42
2022-10-11T00:46:18.730Z,2.30
2022-10-11T00:48:52.911Z,2.08
2022-10-11T00:51:40.875Z,1.73
2022-10-11T00:54:13.364Z,2.30
2022-10-11T00:56:41.389Z,2.47
2022-10-11T00:59:18.977Z,2.78
2022-10-11T01:01:45.786Z,1.92
2022-10-11T01:04:13.041Z,2.10
2022-10-11T01:09:07.553Z,2.30
2022-10-11T01:11:37.754Z,2.25
2022-10-11T01:14:13.693Z,2.42
2022-10-11T01:16:56.867Z,2.40
2022-10-11T01:19:29.233Z,2.80
2022-10-11T01:22:05.678Z,2.58
2022-10-11T01:25:12.191Z,2.17
2022-10-11T01:27:55.299Z,2.20
2022-10-11T01:30:29.167Z,2.20
2022-10-11T01:33:24.604Z,2.00
2022-10-11T01:36:03.657Z,2.83
2022-10-11T01:38:42.030Z,2.70
2022-10-11T01:41:13.679Z,2.50
2022-10-11T01:43:41.989Z,1.92
2022-10-11T01:46:10.307Z,2.08
2022-10-11T01:48:55.709Z,2.15
2022-10-11T01:51:29.847Z,1.80
2022-10-11T01:54:49.879Z,2.63
2022-10-11T01:57:35.000Z,1.90
2022-10-11T02:00:17.304Z,1.85
2022-10-11T02:02:43.933Z,2.53
2022-10-11T02:05:47.023Z,2.10
2022-10-11T02:08:28.773Z,1.85
2022-10-11T02:11:16.169Z,1.98
2022-10-11T02:14:04.574Z,2.13
2022-10-11T02:16:57.451Z,2.33
2022-10-11T02:19:29.000Z,2.42
2022-10-11T02:22:03.376Z,2.40
2022-10-11T02:24:36.222Z,2.17
2022-10-11T02:27:05.108Z,1.98
2022-10-11T02:29:35.956Z,2.08
2022-10-11T02:32:02.780Z,2.10
2022-10-11T02:34:39.796Z,2.38
2022-10-11T02:37:20.263Z,2.10
2022-10-11T02:40:21.335Z,2.00
2022-10-11T02:43:05.210Z,2.10
2022-10-11T02:45:43.944Z,2.30
2022-10-11T02:48:12.288Z,2.30
2022-10-11T02:50:40.247Z,2.40
2022-10-11T02:53:07.603Z,2.42
2022-10-11T02:55:34.756Z,1.98
2022-10-11T03:00:28.980Z,2.17
2022-10-11T03:02:55.627Z,2.85
2022-10-11T03:05:22.396Z,2.30
2022-10-11T03:07:49.028Z,2.35
2022-10-11T03:10:15.858Z,2.30
2022-10-11T03:12:42.564Z,2.28
2022-10-11T03:15:09.659Z,2.25
2022-10-11T03:17:37.281Z,2.47
2022-10-11T03:20:05.843Z,2.10
2022-10-11T03:22:32.548Z,2.10
2022-10-11T03:25:03.625Z,2.10
2022-10-11T03:27:31.322Z,2.10
2022-10-11T03:29:58.024Z,2.50
2022-10-11T03:32:24.826Z,2.13
2022-10-11T03:34:51.510Z,3.08
2022-10-11T03:37:18.370Z,2.45
2022-10-11T03:39:45.809Z,2.50
2022-10-11T03:42:13.709Z,2.17
2022-10-11T03:44:41.919Z,2.42
2022-10-11T03:47:08.906Z,2.58
2022-10-11T03:49:38.681Z,2.85
2022-10-11T03:52:07.943Z,2.83
2022-10-11T03:54:34.645Z,2.42
2022-10-11T03:57:01.279Z,2.00
2022-10-11T03:59:27.927Z,3.08
2022-10-11T04:01:54.675Z,2.08
2022-10-11T04:04:21.397Z,2.03
2022-10-11T04:06:48.043Z,2.20
2022-10-11T04:09:14.683Z,2.38
2022-10-11T04:11:41.328Z,2.50
2022-10-11T04:14:08.033Z,2.50
2022-10-11T04:16:35.265Z,2.90
2022-10-11T04:21:28.559Z,2.35
2022-10-11T04:23:55.227Z,2.50
2022-10-11T04:26:21.884Z,2.33
2022-10-11T04:28:48.732Z,2.10
2022-10-11T04:31:15.431Z,2.08
2022-10-11T04:33:42.073Z,2.10
2022-10-11T04:36:09.168Z,2.42
2022-10-11T04:38:35.997Z,2.22
2022-10-11T04:41:10.751Z,2.20
2022-10-11T04:43:37.496Z,2.30
2022-10-11T04:46:05.697Z,2.05
2022-10-11T04:48:32.699Z,1.95
2022-10-11T04:50:59.384Z,3.13
2022-10-11T04:53:26.048Z,2.33
2022-10-11T04:56:04.387Z,2.10
2022-10-11T04:58:33.530Z,1.90
2022-10-11T05:01:00.585Z,2.25
2022-10-11T05:03:27.730Z,2.40
2022-10-11T05:05:54.621Z,2.60
2022-10-11T05:08:23.232Z,2.10
2022-10-11T05:11:06.819Z,2.05
2022-10-11T05:13:35.378Z,1.95
2022-10-11T05:16:06.920Z,2.58
2022-10-11T05:18:36.451Z,2.03
2022-10-11T05:21:05.945Z,2.42
2022-10-11T05:23:34.640Z,2.72
2022-10-11T05:26:02.306Z,2.08
2022-10-11T05:28:29.844Z,2.38
2022-10-11T05:30:56.510Z,2.40
2022-10-11T05:33:23.556Z,2.28
2022-10-11T05:35:50.475Z,3.20
2022-10-11T05:38:17.388Z,2.90
2022-10-11T05:40:44.264Z,2.67
2022-10-11T05:43:11.127Z,3.30
2022-10-11T05:45:43.564Z,3.78
2022-10-11T05:48:10.907Z,2.88
2022-10-11T05:50:38.236Z,2.95
2022-10-11T05:53:05.902Z,3.30
2022-10-11T05:55:37.364Z,3.22
2022-10-11T05:58:04.917Z,2.72
2022-10-11T06:00:32.114Z,2.80
2022-10-11T06:05:25.437Z,2.63
2022-10-11T06:07:52.077Z,3.17
2022-10-11T06:10:18.846Z,3.42
2022-10-11T06:12:45.523Z,3.63
2022-10-11T06:15:12.147Z,2.72
2022-10-11T06:17:38.774Z,3.30
2022-10-11T06:20:06.013Z,3.45
2022-10-11T06:24:59.399Z,3.00
2022-10-11T06:27:26.116Z,3.05
2022-10-11T06:29:52.747Z,2.75
2022-10-11T06:32:19.553Z,2.88
2022-10-11T06:34:46.266Z,3.20
2022-10-11T06:37:13.013Z,3.05
2022-10-11T06:39:39.694Z,3.08
2022-10-11T06:42:06.407Z,3.22
2022-10-11T06:44:34.135Z,3.15
2022-10-11T06:47:00.807Z,2.72
2022-10-11T06:49:27.427Z,3.22
2022-10-11T06:51:54.093Z,3.83
2022-10-11T06:54:20.699Z,2.65
2022-10-11T06:56:47.376Z,3.08
2022-10-11T06:59:14.929Z,3.03
2022-10-11T07:01:42.265Z,2.83
2022-10-11T07:04:09.161Z,3.38
2022-10-11T07:06:38.797Z,2.97
2022-10-11T07:09:06.471Z,2.90
2022-10-11T07:11:33.971Z,3.42
2022-10-11T07:14:04.326Z,2.97
2022-10-11T07:16:31.044Z,3.35
2022-10-11T07:19:00.941Z,3.65
2022-10-11T07:21:29.981Z,3.90
2022-10-11T07:23:56.668Z,3.05
2022-10-11T07:26:23.566Z,3.55
2022-10-11T07:28:50.265Z,13.65
2022-10-11T07:31:21.684Z,4.60
2022-10-11T07:33:48.671Z,6.47
2022-10-11T07:36:15.464Z,12.98
2022-10-11T07:38:43.562Z,5.15
2022-10-11T07:41:10.651Z,4.03
2022-10-11T07:46:05.536Z,12.50
2022-10-11T07:48:34.628Z,10.15
2022-10-11T07:51:13.438Z,5.35
2022-10-11T07:53:43.043Z,3.88
2022-10-11T07:56:12.474Z,2.60
2022-10-11T07:58:40.717Z,3.13
2022-10-11T08:01:08.872Z,2.83
2022-10-11T08:03:36.282Z,3.90
2022-10-11T08:06:05.755Z,4.32
2022-10-11T08:08:32.884Z,4.53
2022-10-11T08:10:59.761Z,7.47
2022-10-11T08:13:27.038Z,3.53
2022-10-11T08:15:54.337Z,3.03
2022-10-11T08:18:21.188Z,2.40
2022-10-11T08:20:47.978Z,2.70
2022-10-11T08:23:16.306Z,2.22
2022-10-11T08:25:45.841Z,2.53
2022-10-11T08:28:17.007Z,2.80
2022-10-11T08:30:50.531Z,3.22
2022-10-11T08:35:44.637Z,2.35
2022-10-11T08:38:11.574Z,1.63
2022-10-11T08:40:45.007Z,2.28
2022-10-11T08:46:01.386Z,2.00
2022-10-11T08:48:33.020Z,2.17
2022-10-11T08:51:01.009Z,1.83
2022-10-11T08:53:56.308Z,2.10
2022-10-11T08:56:25.538Z,2.08
2022-10-11T08:59:04.272Z,1.70
2022-10-11T09:01:31.796Z,1.48
2022-10-11T09:04:03.478Z,1.63
2022-10-11T09:06:41.412Z,1.95
2022-10-11T09:09:32.544Z,2.00
2022-10-11T09:12:14.181Z,1.67
2022-10-11T09:15:08.905Z,1.40
2022-10-11T09:18:09.569Z,1.40
2022-10-11T09:20:57.369Z,1.40
2022-10-11T09:23:48.760Z,1.50
2022-10-11T09:26:28.799Z,1.50
2022-10-11T09:29:15.894Z,1.77
2022-10-11T09:31:48.917Z,1.80
2022-10-11T09:34:16.162Z,2.13
2022-10-11T09:37:16.628Z,2.03
2022-10-11T09:40:10.344Z,2.00
2022-10-11T09:42:36.995Z,1.55
2022-10-11T09:45:20.923Z,1.60
2022-10-11T09:47:49.584Z,1.50
2022-10-11T09:50:29.111Z,1.75
2022-10-11T09:52:59.908Z,1.40
2022-10-11T09:56:01.460Z,2.08
2022-10-11T09:58:34.137Z,1.50
2022-10-11T10:01:13.728Z,1.20
2022-10-11T10:03:43.603Z,2.30
2022-10-11T10:06:17.547Z,1.75
2022-10-11T10:08:47.036Z,1.55
2022-10-11T10:11:14.912Z,1.65
2022-10-11T10:13:49.908Z,1.58
2022-10-11T10:16:42.822Z,1.48
2022-10-11T10:19:25.168Z,1.42
2022-10-11T10:21:55.061Z,1.90
2022-10-11T10:24:37.993Z,1.92
2022-10-11T10:27:06.100Z,1.63
2022-10-11T10:29:33.083Z,1.42
2022-10-11T10:32:14.304Z,2.00
2022-10-11T10:34:56.687Z,1.75
2022-10-11T10:37:29.790Z,1.83
2022-10-11T10:40:23.238Z,1.88
2022-10-11T10:42:50.893Z,1.70
2022-10-11T10:45:21.496Z,1.98
2022-10-11T10:47:57.535Z,1.85
2022-10-11T10:50:50.011Z,1.55
2022-10-11T10:53:22.987Z,1.90
2022-10-11T10:56:18.238Z,1.52
2022-10-11T10:58:59.640Z,1.75
2022-10-11T11:01:33.275Z,1.58
2022-10-11T11:04:30.232Z,1.30
2022-10-11T11:07:21.305Z,1.65
2022-10-11T11:10:01.182Z,1.55
2022-10-11T11:12:45.915Z,1.50
2022-10-11T11:15:29.945Z,1.30
2022-10-11T11:18:36.600Z,1.30
2022-10-11T11:21:44.222Z,1.48
2022-10-11T11:24:35.532Z,2.55
2022-10-11T11:27:17.461Z,1.30
2022-10-11T11:29:55.533Z,1.77
2022-10-11T11:32:45.713Z,1.30
2022-10-11T11:35:15.719Z,1.55
2022-10-11T11:37:45.028Z,1.75
2022-10-11T11:40:27.286Z,1.35
2022-10-11T11:43:22.065Z,1.50
2022-10-11T11:45:58.193Z,1.23
2022-10-11T11:48:26.471Z,1.55
2022-10-11T11:51:33.891Z,1.58
2022-10-11T11:54:24.540Z,1.45
2022-10-11T11:57:08.321Z,1.60
2022-10-11T11:59:47.188Z,1.15
2022-10-11T12:02:44.853Z,1.42
2022-10-11T12:05:16.132Z,1.75
2022-10-11T12:08:01.626Z,1.50
2022-10-11T12:10:47.127Z,1.38
2022-10-11T12:13:36.831Z,1.83
2022-10-11T12:16:06.521Z,1.83
2022-10-11T12:18:41.894Z,1.17
2022-10-11T12:21:38.371Z,1.80
2022-10-11T12:24:20.123Z,2.08
2022-10-11T12:26:49.129Z,2.03
2022-10-11T12:29:18.563Z,2.20
2022-10-11T12:31:48.338Z,1.75
2022-10-11T12:34:43.623Z,1.95
2022-10-11T12:37:24.951Z,1.55
2022-10-11T12:40:01.000Z,2.03
2022-10-11T12:42:32.003Z,1.77
2022-10-11T12:45:13.813Z,1.80
2022-10-11T12:47:48.029Z,2.03
2022-10-11T12:50:33.609Z,1.83
2022-10-11T12:53:34.475Z,1.85
2022-10-11T12:56:05.866Z,1.80
2022-10-11T12:58:44.956Z,1.90
2022-10-11T13:03:46.942Z,2.15
2022-10-11T13:06:26.199Z,2.10
2022-10-11T13:08:54.649Z,1.80
2022-10-11T13:11:33.518Z,1.80
2022-10-11T13:14:18.909Z,1.60
2022-10-11T13:17:03.845Z,1.65
2022-10-11T13:19:33.310Z,2.30
2022-10-11T13:22:03.579Z,1.98
2022-10-11T13:24:37.807Z,1.75
2022-10-11T13:27:06.274Z,2.08
2022-10-11T13:29:40.835Z,1.88
2022-10-11T13:32:21.865Z,3.50
2022-10-11T13:34:52.540Z,2.13
2022-10-11T13:37:22.513Z,1.88
2022-10-11T13:39:52.196Z,1.70
2022-10-11T13:42:23.367Z,2.30
2022-10-11T13:44:50.160Z,1.80
2022-10-11T13:47:19.819Z,1.80
2022-10-11T13:50:01.825Z,2.25
2022-10-11T13:52:28.496Z,1.80
2022-10-11T13:55:00.676Z,2.10
2022-10-11T13:57:48.096Z,2.08
2022-10-11T14:00:14.792Z,1.70
2022-10-11T14:03:07.745Z,1.75
2022-10-11T14:05:43.152Z,1.73
2022-10-11T14:08:31.019Z,1.88
2022-10-11T14:11:02.461Z,1.92
2022-10-11T14:13:46.976Z,1.90
2022-10-11T14:16:19.544Z,1.88
2022-10-11T14:18:50.485Z,2.17
2022-10-11T14:21:20.282Z,1.45
2022-10-11T14:23:55.058Z,2.15
2022-10-11T14:26:23.980Z,1.77
2022-10-11T14:28:56.089Z,2.17
2022-10-11T14:31:26.055Z,1.80
2022-10-11T14:33:54.108Z,1.90
2022-10-11T14:36:23.016Z,1.98
2022-10-11T14:38:53.226Z,2.00
2022-10-11T14:41:19.898Z,1.83
2022-10-11T14:43:46.750Z,1.80
2022-10-11T14:46:26.008Z,1.92
2022-10-11T14:48:55.879Z,1.90
2022-10-11T14:51:27.487Z,1.90
2022-10-11T14:53:54.341Z,1.52
2022-10-11T14:56:21.825Z,1.95
2022-10-11T14:58:48.824Z,2.00
2022-10-11T15:01:17.255Z,1.88
2022-10-11T15:03:44.075Z,2.67
2022-10-11T15:06:20.396Z,2.03
2022-10-11T15:08:48.046Z,2.42
2022-10-11T15:11:17.994Z,2.10
2022-10-11T15:13:45.469Z,2.17
2022-10-11T15:16:14.885Z,2.70
2022-10-11T15:18:42.044Z,2.63
2022-10-11T15:21:13.280Z,1.98
2022-10-11T15:23:39.997Z,2.72
2022-10-11T15:26:07.031Z,2.90
2022-10-11T15:28:34.076Z,2.92
2022-10-11T15:31:00.976Z,2.65
2022-10-11T15:33:27.715Z,2.40
2022-10-11T15:35:54.405Z,3.53
2022-10-11T15:38:23.975Z,6.25
2022-10-11T15:40:52.143Z,4.82
2022-10-11T15:43:24.217Z,3.33
2022-10-11T15:45:51.772Z,2.70
2022-10-11T15:48:19.251Z,2.03
2022-10-11T15:50:46.195Z,2.50
2022-10-11T15:53:17.215Z,2.70
2022-10-11T15:55:54.767Z,2.70
2022-10-11T15:58:23.900Z,2.72
2022-10-11T16:00:56.515Z,2.25
2022-10-11T16:03:25.966Z,2.45
2022-10-11T16:05:53.785Z,2.17
2022-10-11T16:08:20.776Z,2.50
2022-10-11T16:10:47.572Z,2.47
2022-10-11T16:13:14.712Z,2.70
2022-10-11T16:15:42.936Z,3.40
2022-10-11T16:18:12.261Z,3.05
2022-10-11T16:20:45.586Z,4.95
2022-10-11T16:23:14.008Z,6.18
2022-10-11T16:25:41.211Z,5.07
2022-10-11T16:28:09.144Z,4.75
2022-10-11T16:30:40.929Z,4.72
2022-10-11T16:33:07.556Z,4.15
2022-10-11T16:38:03.267Z,4.10
2022-10-11T16:42:56.899Z,3.85
2022-10-11T16:47:50.379Z,7.45
2022-10-11T16:50:17.216Z,4.45
2022-10-11T16:52:43.908Z,3.78
2022-10-11T16:55:10.560Z,3.05
2022-10-11T16:57:37.786Z,3.42
2022-10-11T17:00:09.325Z,2.05
2022-10-11T17:02:36.682Z,2.40
2022-10-11T17:05:04.045Z,3.20
2022-10-11T17:07:31.494Z,2.92
2022-10-11T17:09:58.910Z,4.00
2022-10-11T17:12:25.693Z,4.07
2022-10-11T17:17:19.404Z,4.75
2022-10-11T17:19:47.547Z,4.15
2022-10-11T17:22:16.867Z,3.60
2022-10-11T17:24:44.118Z,4.03
2022-10-11T17:27:10.993Z,4.70
2022-10-11T17:32:04.502Z,4.90
2022-10-11T17:34:31.283Z,5.40
2022-10-11T17:36:57.897Z,5.28
2022-10-11T17:39:25.688Z,4.47
2022-10-11T17:41:52.701Z,2.58
2022-10-11T17:44:20.277Z,2.65
2022-10-11T17:46:48.440Z,2.78
2022-10-11T17:49:15.377Z,2.85
2022-10-11T17:51:43.608Z,2.90
2022-10-11T17:54:13.372Z,3.88
2022-10-11T17:56:42.974Z,2.63
2022-10-11T17:59:15.955Z,6.88
2022-10-11T18:01:43.212Z,4.45
2022-10-11T18:04:16.806Z,3.45
2022-10-11T18:06:45.463Z,4.05
2022-10-11T18:09:13.330Z,3.97
2022-10-11T18:11:40.218Z,2.85
2022-10-11T18:16:35.019Z,2.42
2022-10-11T18:19:04.511Z,2.13
2022-10-11T18:21:34.546Z,2.63
2022-10-11T18:24:03.704Z,2.40
2022-10-11T18:26:31.149Z,2.33
2022-10-11T18:28:58.497Z,2.95
2022-10-11T18:31:27.572Z,2.50
2022-10-11T18:33:55.055Z,2.20
2022-10-11T18:36:24.511Z,2.78
2022-10-11T18:39:00.344Z,2.83
2022-10-11T18:41:30.656Z,2.80
2022-10-11T18:44:00.031Z,3.08
2022-10-11T18:46:27.327Z,3.35
2022-10-11T18:48:55.877Z,2.70
2022-10-11T18:51:28.780Z,3.03
2022-10-11T18:53:55.934Z,3.58
2022-10-11T18:56:24.520Z,3.58
2022-10-11T18:58:54.075Z,4.82
2022-10-11T19:01:23.923Z,4.45
2022-10-11T19:03:53.862Z,4.00
2022-10-11T19:06:24.258Z,3.38
2022-10-11T19:08:59.161Z,4.13
2022-10-11T19:11:26.034Z,3.70
2022-10-11T19:16:27.283Z,2.85
2022-10-11T19:18:53.979Z,2.40
2022-10-11T19:21:21.974Z,2.70
2022-10-11T19:23:49.768Z,3.30
2022-10-11T19:26:23.015Z,2.95
2022-10-11T19:31:22.031Z,2.97
2022-10-11T19:33:49.553Z,3.30
2022-10-11T19:36:17.315Z,3.40
2022-10-11T19:38:46.317Z,3.55
2022-10-11T19:41:14.136Z,3.45
2022-10-11T19:43:40.760Z,3.00
2022-10-11T19:46:09.929Z,3.05
2022-10-11T19:48:42.638Z,3.30
2022-10-11T19:51:12.571Z,3.35
2022-10-11T19:53:39.585Z,2.97
2022-10-11T19:56:09.341Z,3.60
2022-10-11T19:58:36.065Z,5.20
2022-10-11T20:01:09.868Z,4.15
2022-10-11T20:03:37.487Z,4.07
2022-10-11T20:06:06.989Z,2.53
2022-10-11T20:08:34.633Z,3.10
2022-10-11T20:11:04.136Z,3.10
2022-10-11T20:13:34.717Z,3.10
2022-10-11T20:16:10.677Z,2.95
2022-10-11T20:18:38.444Z,2.67
2022-10-11T20:21:08.646Z,3.05
2022-10-11T20:23:36.165Z,2.88
2022-10-11T20:26:05.836Z,2.95
2022-10-11T20:28:34.639Z,3.00
2022-10-11T20:31:03.463Z,3.17
2022-10-11T20:33:32.089Z,2.90
2022-10-11T20:36:07.713Z,3.58
2022-10-11T20:38:36.665Z,3.97
2022-10-11T20:41:07.891Z,4.38
2022-10-11T20:43:34.907Z,4.13
2022-10-11T20:48:31.343Z,4.00
2022-10-11T20:50:58.226Z,3.90
2022-10-11T20:53:25.467Z,4.60
2022-10-11T20:55:52.382Z,5.25
2022-10-11T20:58:19.611Z,4.82
2022-10-11T21:00:47.032Z,4.75
2022-10-11T21:03:14.449Z,5.68
2022-10-11T21:05:41.509Z,4.90
2022-10-11T21:10:35.189Z,4.38
2022-10-11T21:13:02.076Z,4.88
2022-10-11T21:15:32.261Z,5.03
2022-10-11T21:17:58.976Z,4.75
2022-10-11T21:20:25.755Z,4.50
2022-10-11T21:22:52.487Z,4.75
2022-10-11T21:25:19.236Z,4.63
2022-10-11T21:27:45.876Z,5.32
2022-10-11T21:30:12.584Z,4.90
2022-10-11T21:32:39.255Z,4.78
2022-10-11T21:35:06.139Z,4.45
2022-10-11T21:37:33.054Z,4.13
2022-10-11T21:39:59.879Z,4.40
2022-10-11T21:42:29.576Z,4.07
2022-10-11T21:44:56.404Z,4.38
2022-10-11T21:47:23.195Z,4.50
2022-10-11T21:49:50.190Z,5.90
2022-10-11T21:52:17.071Z,4.90
2022-10-11T21:54:43.721Z,5.38
2022-10-11T21:57:10.403Z,6.28
2022-10-11T21:59:37.087Z,5.53
2022-10-11T22:02:06.285Z,5.22
2022-10-11T22:04:33.023Z,5.22
2022-10-11T22:06:59.655Z,5.22
2022-10-11T22:09:28.271Z,4.80
2022-10-11T22:11:55.313Z,4.50
2022-10-11T22:16:48.715Z,4.95
2022-10-11T22:19:15.335Z,4.82
2022-10-11T22:21:45.075Z,5.47
2022-10-11T22:24:12.188Z,5.15
2022-10-11T22:26:38.838Z,4.63
2022-10-11T22:29:05.491Z,5.10
2022-10-11T22:31:32.178Z,5.45
2022-10-11T22:34:00.422Z,5.35
2022-10-11T22:36:28.362Z,4.50
2022-10-11T22:38:55.088Z,4.60
2022-10-11T22:41:22.001Z,5.65
2022-10-11T22:43:48.747Z,4.72
2022-10-11T22:46:15.423Z,4.72
2022-10-11T22:48:42.150Z,5.15
2022-10-11T22:51:08.859Z,5.15
2022-10-11T22:53:35.475Z,4.88
2022-10-11T22:56:02.189Z,4.80
2022-10-11T22:58:29.028Z,5.22
2022-10-11T23:00:55.717Z,4.80
2022-10-11T23:03:22.417Z,5.30
2022-10-11T23:05:58.547Z,5.13
2022-10-11T23:08:25.565Z,5.70
2022-10-11T23:13:19.433Z,4.10
2022-10-11T23:15:46.198Z,4.30
2022-10-11T23:18:13.107Z,5.78
2022-10-11T23:20:40.004Z,4.93
2022-10-11T23:23:07.402Z,4.20
2022-10-11T23:25:34.094Z,4.45
2022-10-11T23:28:01.525Z,4.28
2022-10-11T23:30:29.603Z,4.78
2022-10-11T23:32:56.356Z,4.70
2022-10-11T23:35:23.189Z,5.05
2022-10-11T23:37:49.933Z,5.00
2022-10-11T23:40:16.782Z,4.80
2022-10-11T23:42:43.509Z,5.07
2022-10-11T23:45:10.548Z,5.43
2022-10-11T23:50:04.727Z,4.78
2022-10-11T23:54:58.007Z,5.05
2022-10-11T23:57:24.716Z,4.95
2022-10-11T23:59:51.425Z,5.32
